Time;durP1;ratioP1;P1;durP2;ratioP2;P2;SDS_P1;SDS_P2;PMS_P1;PMS_P2;Temp;Humidity;BMP_temperature;BMP_pressure;BME280_temperature;BME280_humidity;BME280_pressure;Samples;Min_cycle;Max_cycle;Signal;HPM_P1;HPM_P2
2021/09/28 00:01:00;;;;;;;12.80;8.60;;;;;;;16.33;71.41;97517.88;117124;1176;59551;-73
2021/09/28 00:03:31;;;;;;;12.60;8.80;;;;;;;16.32;71.61;97518.23;117154;1176;59513;-71
2021/09/28 00:06:00;;;;;;;10.70;8.20;;;;;;;16.32;71.72;97519.21;117162;1177;71474;-71
2021/09/28 00:08:30;;;;;;;15.30;9.40;;;;;;;16.29;72.14;97518.90;117124;1177;69286;-72
2021/09/28 00:11:01;;;;;;;14.60;8.60;;;;;;;16.25;72.13;97516.38;117041;1176;68511;-71
2021/09/28 00:13:32;;;;;;;;;;;;;;;16.22;71.98;97518.61;117081;1177;59555;-72
2021/09/28 00:16:03;;;;;;;15.90;8.80;;;;;;;16.17;72.48;97517.90;117130;1176;59529;-71
2021/09/28 00:18:33;;;;;;;16.80;9.00;;;;;;;16.15;72.62;97520.41;116969;1177;71281;-71
2021/09/28 00:21:03;;;;;;;16.40;8.90;;;;;;;16.12;72.61;97520.66;117045;1177;69188;-71
2021/09/28 00:23:33;;;;;;;13.60;8.70;;;;;;;16.09;72.28;97518.48;117035;1176;69048;-72
2021/09/28 00:26:04;;;;;;;;;;;;;;;16.09;72.18;97515.31;117166;1176;59574;-71
2021/09/28 00:28:34;;;;;;;14.20;8.50;;;;;;;16.08;72.04;97514.17;117172;1176;59454;-71
2021/09/28 00:31:04;;;;;;;10.90;8.60;;;;;;;16.08;71.64;97510.63;117247;1175;70442;-72
2021/09/28 00:33:34;;;;;;;13.00;8.80;;;;;;;16.11;71.23;97508.96;117044;1177;68928;-71
2021/09/28 00:36:04;;;;;;;11.70;8.40;;;;;;;16.15;71.13;97509.65;117037;1176;69127;-71
2021/09/28 00:38:34;;;;;;;14.50;8.90;;;;;;;16.18;70.97;97510.30;117065;1177;59471;-71
2021/09/28 00:41:05;;;;;;;13.20;8.50;;;;;;;16.21;70.84;97511.11;117210;1176;59481;-72
2021/09/28 00:43:53;;;;;;;13.60;8.80;;;;;;;16.21;71.63;97506.05;117194;1177;71743;-73
2021/09/28 00:46:25;;;;;;;12.40;8.60;;;;;;;16.20;72.14;97511.00;117085;1177;69307;-72
2021/09/28 00:48:59;;;;;;;10.80;8.30;;;;;;;16.18;72.25;97512.27;117164;1177;69482;-72
2021/09/28 00:51:30;;;;;;;11.60;8.60;;;;;;;16.16;72.43;97513.36;117171;1177;59536;-73
2021/09/28 00:54:00;;;;;;;11.30;9.00;;;;;;;16.15;72.27;97505.99;117038;1173;59544;-72
2021/09/28 00:56:30;;;;;;;;;;;;;;;16.12;73.33;97509.19;117218;1176;71369;-71
2021/09/28 00:59:01;;;;;;;15.20;9.00;;;;;;;16.10;72.77;97507.11;117209;1177;68337;-72
2021/09/28 01:01:32;;;;;;;13.00;9.00;;;;;;;16.09;72.53;97503.58;117101;1177;69541;-72
2021/09/28 01:04:03;;;;;;;12.50;9.20;;;;;;;16.05;73.39;97505.70;117073;1177;59618;-72
2021/09/28 01:06:33;;;;;;;13.90;9.30;;;;;;;16.02;73.76;97508.08;117136;1177;59884;-72
2021/09/28 01:09:03;;;;;;;;;;;;;;;15.97;73.09;97508.12;117188;1176;71395;-72
2021/09/28 01:11:33;;;;;;;13.90;9.30;;;;;;;15.89;73.67;97511.14;117125;1177;68983;-73
2021/09/28 01:14:03;;;;;;;11.50;9.00;;;;;;;15.83;74.62;97509.85;117001;1177;69435;-71
2021/09/28 01:16:34;;;;;;;17.30;10.30;;;;;;;15.77;75.78;97509.54;117094;1176;59522;-72
2021/09/28 01:19:05;;;;;;;13.50;10.20;;;;;;;15.68;76.32;97502.95;117011;1177;59587;-73
2021/09/28 01:21:36;;;;;;;12.70;10.30;;;;;;;15.59;76.94;97509.21;117139;1177;71390;-72
2021/09/28 01:24:07;;;;;;;14.50;9.70;;;;;;;15.50;77.43;97511.94;117175;1177;69210;-72
2021/09/28 01:26:37;;;;;;;;;;;;;;;15.43;77.80;97514.92;117078;1177;68363;-72
2021/09/28 01:29:08;;;;;;;13.20;9.80;;;;;;;15.39;77.63;97514.17;117130;1177;59510;-73
2021/09/28 01:31:38;;;;;;;14.00;10.80;;;;;;;15.38;76.88;97509.73;117016;1177;59522;-73
2021/09/28 01:34:09;;;;;;;14.60;10.70;;;;;;;15.38;76.21;97509.67;117285;1177;70649;-71
2021/09/28 01:36:40;;;;;;;15.80;10.30;;;;;;;15.36;76.67;97508.57;117181;1177;69033;-73
2021/09/28 01:39:09;;;;;;;13.40;10.70;;;;;;;15.33;77.11;97510.73;117177;1177;69244;-71
2021/09/28 01:41:39;;;;;;;14.90;10.50;;;;;;;15.31;77.71;97507.08;117199;1177;59500;-72
2021/09/28 01:44:16;;;;;;;13.90;10.60;;;;;;;15.30;77.40;97508.23;117187;1176;58765;-75
2021/09/28 01:46:47;;;;;;;13.70;10.10;;;;;;;15.27;78.89;97504.85;117176;1176;71382;-71
2021/09/28 01:49:20;;;;;;;15.60;10.40;;;;;;;15.24;79.31;97498.31;117242;1177;68564;-71
2021/09/28 01:51:50;;;;;;;17.80;11.50;;;;;;;15.24;78.65;97498.71;117078;1177;68331;-73
2021/09/28 01:54:20;;;;;;;15.00;11.40;;;;;;;15.23;77.61;97497.95;117135;1177;59494;-74
2021/09/28 01:56:50;;;;;;;15.20;10.80;;;;;;;15.21;77.90;97498.36;117026;1177;58379;-73
2021/09/28 01:59:20;;;;;;;15.80;11.00;;;;;;;15.19;77.67;97496.47;117176;1177;70695;-73
2021/09/28 02:01:50;;;;;;;17.70;11.60;;;;;;;15.17;77.64;97492.08;117144;1176;68364;-72
2021/09/28 02:04:20;;;;;;;16.20;11.20;;;;;;;15.15;77.61;97494.41;117137;1177;68392;-73
2021/09/28 02:06:51;;;;;;;15.10;11.40;;;;;;;15.12;78.23;97494.89;117090;1177;59503;-74
2021/09/28 02:09:20;;;;;;;19.60;11.90;;;;;;;15.10;79.04;97492.88;117181;1176;59504;-72
2021/09/28 02:11:51;;;;;;;17.30;11.60;;;;;;;15.09;78.68;97490.98;117157;1168;70481;-74
2021/09/28 02:14:26;;;;;;;16.10;11.40;;;;;;;15.07;78.35;97495.10;117159;1177;68986;-73
2021/09/28 02:16:57;;;;;;;15.10;11.20;;;;;;;15.03;79.15;97493.30;117070;1177;68281;-71
2021/09/28 02:19:27;;;;;;;15.90;12.00;;;;;;;15.01;79.96;97493.18;117055;1177;59520;-73
2021/09/28 02:21:57;;;;;;;15.60;12.10;;;;;;;14.98;80.65;97495.80;117131;1176;59494;-69
2021/09/28 02:24:27;;;;;;;18.50;12.70;;;;;;;14.96;79.88;97491.64;117095;1177;70573;-72
2021/09/28 02:26:58;;;;;;;16.10;12.20;;;;;;;14.94;80.04;97490.88;117136;1177;69436;-72
2021/09/28 02:29:27;;;;;;;18.10;12.90;;;;;;;14.91;79.71;97489.55;117070;1176;69278;-73
2021/09/28 02:31:57;;;;;;;17.90;12.50;;;;;;;14.89;80.13;97487.20;117125;1177;59531;-73
2021/09/28 02:34:27;;;;;;;16.60;12.40;;;;;;;14.88;79.93;97489.85;117077;1177;59487;-72
2021/09/28 02:36:57;;;;;;;16.40;11.90;;;;;;;14.87;79.98;97486.58;117074;1176;71342;-73
2021/09/28 02:39:26;;;;;;;17.70;12.60;;;;;;;14.85;80.21;97487.52;117125;1176;69229;-72
2021/09/28 02:41:56;;;;;;;18.50;12.30;;;;;;;14.85;79.91;97487.76;116994;1176;69219;-71
2021/09/28 02:44:25;;;;;;;16.50;11.90;;;;;;;14.84;80.30;97487.17;116991;1177;59507;-73
2021/09/28 02:46:55;;;;;;;15.60;12.70;;;;;;;14.82;81.00;97489.31;117143;1176;59474;-73
2021/09/28 02:49:25;;;;;;;16.40;12.10;;;;;;;14.80;80.83;97493.79;117148;1176;71348;-73
2021/09/28 02:51:54;;;;;;;17.00;11.40;;;;;;;14.76;81.18;97488.55;117124;1176;68410;-73
2021/09/28 02:54:25;;;;;;;21.10;12.40;;;;;;;14.74;81.56;97488.25;117031;1177;68626;-73
2021/09/28 02:56:55;;;;;;;14.60;11.70;;;;;;;14.73;81.23;97485.65;117062;1176;59523;-75
2021/09/28 02:59:26;;;;;;;15.60;11.70;;;;;;;14.72;81.20;97486.52;117113;1176;59501;-70
2021/09/28 03:01:55;;;;;;;16.60;11.90;;;;;;;14.72;81.13;97484.59;117023;1177;71360;-70
2021/09/28 03:04:25;;;;;;;17.50;12.00;;;;;;;14.71;80.99;97487.49;117078;1177;69157;-73
2021/09/28 03:06:55;;;;;;;16.80;11.40;;;;;;;14.69;81.17;97486.70;117068;1177;69704;-73
2021/09/28 03:09:24;;;;;;;17.40;12.00;;;;;;;14.69;81.27;97489.12;117071;1177;59513;-72
2021/09/28 03:11:54;;;;;;;15.10;11.60;;;;;;;14.67;81.09;97492.11;117014;1175;59504;-72
2021/09/28 03:14:24;;;;;;;13.60;10.60;;;;;;;14.69;80.41;97489.42;117086;1177;71334;-74
2021/09/28 03:16:53;;;;;;;21.50;12.60;;;;;;;14.65;81.47;97487.05;117085;1176;69175;-73
2021/09/28 03:19:24;;;;;;;17.60;12.40;;;;;;;14.65;80.95;97487.23;117076;1177;68257;-73
2021/09/28 03:21:54;;;;;;;19.40;12.50;;;;;;;14.64;81.20;97492.44;116945;1177;59537;-73
2021/09/28 03:24:23;;;;;;;15.50;12.30;;;;;;;14.62;81.42;97495.94;117053;1176;59468;-73
2021/09/28 03:26:53;;;;;;;16.80;12.60;;;;;;;14.64;81.05;97497.05;117017;1177;70319;-74
2021/09/28 03:29:22;;;;;;;13.70;11.70;;;;;;;14.64;81.48;97496.73;117118;1177;68313;-74
2021/09/28 03:31:52;;;;;;;12.80;10.40;;;;;;;14.65;81.81;97497.82;117030;1176;69098;-73
2021/09/28 03:34:21;;;;;;;16.00;12.00;;;;;;;14.65;81.50;97497.52;117070;1177;59530;-74
2021/09/28 03:36:50;;;;;;;17.70;12.40;;;;;;;14.65;81.03;97497.33;117100;1177;59530;-74
2021/09/28 03:39:19;;;;;;;15.00;12.30;;;;;;;14.65;81.05;97499.40;117030;1177;71140;-72
2021/09/28 03:41:49;;;;;;;15.90;12.50;;;;;;;14.62;81.96;97499.04;117107;1177;68171;-73
2021/09/28 03:44:18;;;;;;;17.40;12.10;;;;;;;14.63;81.83;97504.11;117091;1177;69235;-73
2021/09/28 03:46:48;;;;;;;16.40;12.60;;;;;;;14.63;82.01;97501.80;117112;1177;59565;-73
2021/09/28 03:49:17;;;;;;;16.80;12.40;;;;;;;14.64;82.10;97503.90;117029;1177;59511;-73
2021/09/28 03:51:46;;;;;;;16.60;12.40;;;;;;;14.64;81.82;97503.84;117138;1177;70484;-73
2021/09/28 03:54:15;;;;;;;16.50;12.10;;;;;;;14.63;81.95;97505.38;117067;1177;69251;-73
2021/09/28 03:56:45;;;;;;;16.50;11.80;;;;;;;14.62;82.15;97509.73;116996;1177;69206;-72
2021/09/28 03:59:14;;;;;;;16.80;12.30;;;;;;;14.61;82.13;97505.89;117099;1177;59542;-69
2021/09/28 04:01:43;;;;;;;14.60;11.30;;;;;;;14.59;82.50;97507.61;117082;1176;59383;-73
2021/09/28 04:04:14;;;;;;;17.00;12.70;;;;;;;14.60;81.98;97505.91;117167;1177;71260;-72
2021/09/28 04:06:43;;;;;;;16.00;12.20;;;;;;;14.62;81.20;97508.35;117153;1176;69195;-72
2021/09/28 04:09:13;;;;;;;16.20;12.80;;;;;;;14.63;82.09;97508.17;117082;1177;68343;-73
2021/09/28 04:11:42;;;;;;;17.10;12.40;;;;;;;14.63;82.19;97505.14;117123;1176;59529;-71
2021/09/28 04:14:14;;;;;;;17.10;12.80;;;;;;;14.65;81.82;97510.61;117128;1177;59539;-73
2021/09/28 04:16:43;;;;;;;16.80;13.40;;;;;;;14.67;81.04;97512.63;117147;1176;71343;-73
2021/09/28 04:19:13;;;;;;;19.00;14.60;;;;;;;14.66;81.11;97511.79;117117;1176;69158;-71
2021/09/28 04:21:42;;;;;;;19.40;15.30;;;;;;;14.65;81.86;97505.69;117114;1176;69075;-73
2021/09/28 04:24:12;;;;;;;18.50;14.30;;;;;;;14.64;82.51;97511.39;117096;1176;59604;-71
2021/09/28 04:26:42;;;;;;;19.60;13.70;;;;;;;14.64;83.40;97514.33;117085;1177;59528;-73
2021/09/28 04:29:11;;;;;;;19.70;14.30;;;;;;;14.62;83.53;97512.85;116993;1177;71151;-73
2021/09/28 04:31:40;;;;;;;16.10;13.40;;;;;;;14.61;83.38;97515.11;117032;1176;68909;-73
2021/09/28 04:34:09;;;;;;;21.00;14.50;;;;;;;14.59;83.47;97511.70;117135;1176;67561;-73
2021/09/28 04:36:38;;;;;;;19.90;14.50;;;;;;;14.56;84.04;97515.90;117108;1176;59524;-73
2021/09/28 04:39:07;;;;;;;20.90;14.20;;;;;;;14.54;83.86;97517.73;117161;1177;59532;-73
2021/09/28 04:41:37;;;;;;;17.30;13.90;;;;;;;14.52;84.80;97520.21;117210;1177;71498;-73
2021/09/28 04:44:06;;;;;;;20.50;14.80;;;;;;;14.50;84.35;97522.25;117012;1176;68486;-72
2021/09/28 04:46:35;;;;;;;19.20;14.50;;;;;;;14.48;83.88;97521.95;117123;1177;69228;-73
2021/09/28 04:49:05;;;;;;;19.30;13.70;;;;;;;14.44;84.93;97522.20;117162;1177;59516;-73
2021/09/28 04:51:34;;;;;;;21.00;15.40;;;;;;;14.43;83.81;97521.61;117164;1177;59532;-73
2021/09/28 04:54:03;;;;;;;22.50;15.70;;;;;;;14.41;84.13;97524.96;117121;1177;71357;-71
2021/09/28 04:56:32;;;;;;;23.00;16.20;;;;;;;14.39;84.81;97524.71;117007;1177;67733;-71
2021/09/28 04:59:01;;;;;;;20.60;16.60;;;;;;;14.39;84.18;97522.36;117092;1176;69110;-72
2021/09/28 05:01:32;;;;;;;19.30;15.40;;;;;;;14.38;85.60;97524.77;117098;1177;59524;-72
2021/09/28 05:04:01;;;;;;;;;;;;;;;14.38;85.50;97524.07;117166;1177;59507;-72
2021/09/28 05:06:30;;;;;;;31.30;24.40;;;;;;;14.37;85.05;97525.15;117089;1176;71409;-73
2021/09/28 05:08:59;;;;;;;29.70;23.70;;;;;;;14.36;85.32;97525.42;117124;1177;69208;-72
2021/09/28 05:11:28;;;;;;;29.40;25.70;;;;;;;14.36;85.30;97528.66;117004;1177;69396;-73
2021/09/28 05:14:00;;;;;;;28.30;25.00;;;;;;;14.35;84.78;97526.30;116970;1177;59572;-79
2021/09/28 05:16:29;;;;;;;27.20;22.20;;;;;;;14.35;84.58;97529.17;117128;1177;59605;-74
2021/09/28 05:18:59;;;;;;;28.20;22.20;;;;;;;14.35;84.05;97529.64;117047;1177;71329;-74
2021/09/28 05:21:28;;;;;;;31.50;25.30;;;;;;;14.33;83.46;97532.71;117026;1176;69109;-72
2021/09/28 05:23:57;;;;;;;34.10;27.60;;;;;;;14.32;83.34;97533.79;117044;1176;69386;-74
2021/09/28 05:26:26;;;;;;;36.10;29.40;;;;;;;14.30;83.35;97534.58;117063;1177;59531;-72
2021/09/28 05:28:55;;;;;;;34.10;28.40;;;;;;;14.29;83.47;97535.80;117085;1174;59528;-71
2021/09/28 05:31:24;;;;;;;33.20;25.00;;;;;;;14.29;83.87;97535.00;117147;1176;70881;-71
2021/09/28 05:33:53;;;;;;;29.10;24.20;;;;;;;14.29;83.72;97539.09;117116;1176;69244;-74
2021/09/28 05:36:23;;;;;;;29.10;21.80;;;;;;;14.28;85.82;97532.77;117134;1177;69290;-74
2021/09/28 05:38:51;;;;;;;30.70;23.30;;;;;;;14.28;84.11;97538.87;117085;1177;59528;-71
2021/09/28 05:41:21;;;;;;;29.80;22.90;;;;;;;14.27;84.39;97532.71;117118;1177;59530;-72
2021/09/28 05:43:51;;;;;;;28.40;24.10;;;;;;;14.29;86.06;97538.04;117122;1177;71375;-72
2021/09/28 05:46:20;;;;;;;31.20;21.70;;;;;;;14.30;85.72;97538.71;116997;1177;69345;-75
2021/09/28 05:48:49;;;;;;;26.30;20.10;;;;;;;14.29;85.21;97543.77;117183;1177;69486;-73
2021/09/28 05:51:20;;;;;;;31.30;21.40;;;;;;;14.29;86.03;97544.00;117125;1177;59538;-75
2021/09/28 05:53:50;;;;;;;23.90;19.40;;;;;;;14.31;85.41;97549.23;117200;1177;60024;-74
2021/09/28 05:56:20;;;;;;;24.40;18.90;;;;;;;14.33;86.03;97550.59;117137;1177;71184;-73
2021/09/28 05:58:49;;;;;;;21.50;16.80;;;;;;;14.36;85.62;97555.96;117008;1177;69185;-72
2021/09/28 06:01:18;;;;;;;22.80;17.00;;;;;;;14.38;85.29;97557.49;117046;1177;68969;-73
2021/09/28 06:03:48;;;;;;;21.80;17.20;;;;;;;14.40;84.95;97557.25;117207;1177;59556;-73
2021/09/28 06:06:18;;;;;;;25.50;17.20;;;;;;;14.42;85.21;97558.66;117128;1177;59503;-72
2021/09/28 06:08:47;;;;;;;27.30;18.10;;;;;;;14.44;84.10;97559.24;117073;1177;71273;-73
2021/09/28 06:11:16;;;;;;;21.10;16.20;;;;;;;14.43;83.71;97556.73;117126;1177;69316;-75
2021/09/28 06:13:45;;;;;;;22.30;16.60;;;;;;;14.40;83.43;97560.75;117014;1177;69360;-71
2021/09/28 06:16:14;;;;;;;26.20;17.80;;;;;;;14.39;83.31;97561.52;117058;1176;59504;-71
2021/09/28 06:18:44;;;;;;;23.10;16.70;;;;;;;14.37;83.13;97560.40;116994;1177;59501;-71
2021/09/28 06:21:13;;;;;;;24.60;17.70;;;;;;;14.36;83.13;97564.40;117019;1177;70404;-72
2021/09/28 06:23:42;;;;;;;23.10;16.80;;;;;;;14.36;83.14;97569.17;116967;1170;69114;-70
2021/09/28 06:26:11;;;;;;;20.00;16.20;;;;;;;14.35;83.08;97567.68;116903;1177;69269;-73
2021/09/28 06:28:40;;;;;;;24.70;15.90;;;;;;;14.37;83.22;97572.90;117042;1177;59529;-73
2021/09/28 06:31:09;;;;;;;19.30;14.60;;;;;;;14.37;83.21;97573.37;116952;1177;59505;-73
2021/09/28 06:33:38;;;;;;;21.20;14.80;;;;;;;14.38;82.85;97571.12;116920;1176;71197;-72
2021/09/28 06:36:07;;;;;;;18.60;14.80;;;;;;;14.38;82.56;97576.96;117091;1176;68218;-72
2021/09/28 06:38:37;;;;;;;20.30;14.90;;;;;;;14.41;82.56;97573.27;117003;1177;68274;-70
2021/09/28 06:41:06;;;;;;;18.80;14.20;;;;;;;14.42;82.88;97576.07;117125;1177;59507;-73
2021/09/28 06:43:35;;;;;;;19.50;13.60;;;;;;;14.45;82.56;97578.23;117023;1177;59498;-71
2021/09/28 06:46:05;;;;;;;21.30;15.20;;;;;;;14.46;82.22;97578.73;117135;1177;70463;-70
2021/09/28 06:48:35;;;;;;;18.40;15.20;;;;;;;14.49;82.14;97583.30;117093;1176;69053;-70
2021/09/28 06:51:04;;;;;;;20.40;15.10;;;;;;;14.50;81.93;97586.34;116960;1177;69347;-71
2021/09/28 06:53:33;;;;;;;21.10;15.50;;;;;;;14.53;82.39;97590.11;117177;1177;59532;-72
2021/09/28 06:56:03;;;;;;;19.50;15.00;;;;;;;14.57;82.81;97591.35;116960;1177;59500;-75
2021/09/28 06:58:32;;;;;;;23.30;15.70;;;;;;;14.57;83.20;97596.37;117024;1176;71424;-75
2021/09/28 07:01:01;;;;;;;21.50;15.20;;;;;;;14.58;83.32;97598.22;116931;1177;68331;-71
2021/09/28 07:03:33;;;;;;;19.60;16.30;;;;;;;14.58;84.47;97601.31;117108;1177;69072;-74
2021/09/28 07:06:02;;;;;;;22.40;15.00;;;;;;;14.58;83.63;97605.44;117094;1177;59526;-70
2021/09/28 07:08:34;;;;;;;19.90;15.00;;;;;;;14.55;83.20;97605.59;116976;1177;59584;-72
2021/09/28 07:11:03;;;;;;;22.60;15.20;;;;;;;14.56;82.88;97611.91;117064;1177;71192;-71
2021/09/28 07:13:32;;;;;;;22.10;14.50;;;;;;;14.56;83.02;97615.35;117064;1177;69318;-70
2021/09/28 07:16:01;;;;;;;19.10;15.60;;;;;;;14.56;83.36;97612.96;117059;1176;68432;-72
2021/09/28 07:18:30;;;;;;;21.80;15.90;;;;;;;14.55;83.36;97613.45;117040;1177;59536;-71
2021/09/28 07:20:59;;;;;;;20.90;15.80;;;;;;;14.57;82.98;97617.05;117088;1177;59578;-70
2021/09/28 07:23:28;;;;;;;19.10;15.10;;;;;;;14.57;83.15;97612.59;116988;1176;70652;-70
2021/09/28 07:25:57;;;;;;;21.80;16.00;;;;;;;14.57;83.24;97619.03;117084;1176;68578;-70
2021/09/28 07:28:26;;;;;;;20.90;16.00;;;;;;;14.56;82.74;97621.14;117060;1177;69204;-70
2021/09/28 07:30:55;;;;;;;23.80;16.90;;;;;;;14.54;83.71;97624.58;117071;1177;59533;-73
2021/09/28 07:33:25;;;;;;;17.60;14.70;;;;;;;14.51;84.00;97625.32;117037;1176;59511;-72
2021/09/28 07:35:55;;;;;;;24.80;15.10;;;;;;;14.49;84.46;97629.71;117023;1177;71433;-70
2021/09/28 07:38:24;;;;;;;21.20;15.00;;;;;;;14.50;84.24;97631.11;117033;1177;69160;-71
2021/09/28 07:40:54;;;;;;;20.30;15.60;;;;;;;14.49;85.07;97631.38;117044;1177;69268;-70
2021/09/28 07:43:23;;;;;;;23.90;15.80;;;;;;;14.47;84.63;97632.40;116962;1177;59496;-72
2021/09/28 07:45:54;;;;;;;19.00;14.60;;;;;;;14.46;85.45;97638.67;117140;1177;59517;-70
2021/09/28 07:48:23;;;;;;;24.70;14.80;;;;;;;14.49;85.67;97638.31;117148;1177;71359;-72
2021/09/28 07:50:53;;;;;;;19.90;15.30;;;;;;;14.53;85.79;97637.49;117099;1177;68515;-73
2021/09/28 07:53:24;;;;;;;23.30;16.50;;;;;;;14.57;85.10;97638.78;117056;1177;69153;-73
2021/09/28 07:55:55;;;;;;;22.80;16.00;;;;;;;14.56;84.62;97637.70;117028;1176;59583;-72
2021/09/28 07:58:24;;;;;;;23.40;16.90;;;;;;;14.54;84.88;97639.47;117201;1177;59519;-74
2021/09/28 08:00:53;;;;;;;21.50;16.60;;;;;;;14.52;84.20;97637.23;117045;1177;70468;-73
2021/09/28 08:03:27;;;;;;;24.70;16.80;;;;;;;14.44;83.98;97638.89;116916;1177;69630;-69
2021/09/28 08:05:56;;;;;;;23.60;16.90;;;;;;;14.40;84.02;97638.66;117093;1176;69327;-72
2021/09/28 08:08:25;;;;;;;23.70;17.50;;;;;;;14.35;84.18;97636.23;117201;1176;59520;-74
2021/09/28 08:10:55;;;;;;;25.90;18.50;;;;;;;14.32;84.26;97634.91;117098;1177;59500;-74
2021/09/28 08:13:25;;;;;;;30.50;22.30;;;;;;;14.28;84.81;97635.33;117045;1177;70548;-71
2021/09/28 08:15:55;;;;;;;33.50;23.10;;;;;;;14.26;84.39;97639.94;117052;1177;68496;-71
2021/09/28 08:18:24;;;;;;;;;;;;;;;14.23;84.26;97642.39;116909;1177;68977;-73
2021/09/28 08:20:54;;;;;;;26.40;18.40;;;;;;;14.16;85.06;97646.98;116978;1177;59522;-73
2021/09/28 08:23:24;;;;;;;23.80;19.10;;;;;;;14.11;84.89;97650.10;117008;1177;59533;-71
2021/09/28 08:31:12;;;;;;;26.10;18.60;;;;;;;14.11;85.33;97639.98;116987;1177;68609;-75
2021/09/28 08:33:44;;;;;;;25.00;18.80;;;;;;;14.07;85.98;97643.25;116906;1177;59551;-74
2021/09/28 08:36:16;;;;;;;26.20;19.20;;;;;;;14.08;85.67;97639.64;116877;1178;59500;-74
2021/09/28 08:38:47;;;;;;;23.90;18.90;;;;;;;14.10;85.67;97632.55;116982;1176;70633;-75
2021/09/28 08:41:24;;;;;;;25.40;19.30;;;;;;;14.09;85.88;97626.61;116812;1177;68677;-76
2021/09/28 08:43:56;;;;;;;21.20;17.20;;;;;;;14.13;86.26;97623.18;116885;1178;69197;-74
2021/09/28 08:46:28;;;;;;;31.30;18.00;;;;;;;14.18;85.99;97625.79;116725;1177;59561;-75
2021/09/28 08:48:59;;;;;;;26.30;16.90;;;;;;;14.19;85.93;97630.38;116695;1178;59535;-76
2021/09/28 08:51:32;;;;;;;;;;;;;;;14.21;86.79;97632.58;116785;1177;70569;-73
2021/09/28 08:54:03;;;;;;;21.90;15.20;;;;;;;14.28;85.61;97634.86;116918;1177;68417;-75
2021/09/28 08:56:35;;;;;;;20.40;14.60;;;;;;;14.25;85.22;97633.56;116840;1174;68707;-76
2021/09/28 08:59:14;;;;;;;21.40;15.20;;;;;;;14.25;85.12;97633.63;116736;1179;59492;-75
2021/09/28 09:02:20;;;;;;;21.40;14.80;;;;;;;14.25;85.09;97638.80;116800;1177;59492;-76
2021/09/28 09:05:04;;;;;;;22.40;14.10;;;;;;;14.28;85.29;97635.95;116954;1177;71155;-78
2021/09/28 09:07:35;;;;;;;20.60;14.00;;;;;;;14.31;85.02;97637.59;116720;1177;69250;-72
2021/09/28 09:10:05;;;;;;;20.20;15.10;;;;;;;14.31;84.97;97636.14;117027;1177;69291;-74
2021/09/28 09:12:41;;;;;;;18.80;14.30;;;;;;;14.36;84.79;97636.83;116642;1178;59580;-74
2021/09/28 09:15:30;;;;;;;19.50;14.50;;;;;;;14.39;84.48;97637.42;116843;1177;59523;-77
2021/09/28 09:18:05;;;;;;;21.10;14.40;;;;;;;14.36;84.69;97638.20;116964;1177;70663;-75
2021/09/28 09:20:42;;;;;;;16.90;13.60;;;;;;;14.33;84.72;97638.22;116985;1177;69410;-75
2021/09/28 09:23:36;;;;;;;18.80;14.50;;;;;;;14.34;84.55;97638.98;116924;1177;69084;-75
2021/09/28 09:26:15;;;;;;;18.90;14.70;;;;;;;14.35;84.55;97638.05;116542;1181;59539;-75
2021/09/28 09:28:52;;;;;;;20.00;14.30;;;;;;;14.32;84.59;97640.58;116856;1179;59532;-74
2021/09/28 09:31:31;;;;;;;20.10;15.00;;;;;;;14.33;84.62;97638.86;116708;1177;70601;-74
2021/09/28 09:34:19;;;;;;;20.20;14.40;;;;;;;14.34;84.64;97637.79;116964;1177;69507;-75
2021/09/28 09:37:03;;;;;;;19.60;14.30;;;;;;;14.35;84.68;97642.83;116675;1177;69645;-74
2021/09/28 09:39:50;;;;;;;20.80;15.10;;;;;;;14.39;84.92;97645.06;116904;1177;59581;-75
2021/09/28 09:42:23;;;;;;;18.00;14.40;;;;;;;14.46;85.29;97644.79;116712;1179;59517;-74
2021/09/28 09:44:55;;;;;;;21.30;14.30;;;;;;;14.49;84.33;97647.77;116973;1176;70712;-75
2021/09/28 09:47:35;;;;;;;18.90;14.20;;;;;;;14.48;84.37;97647.48;116837;1179;69461;-74
2021/09/28 09:50:16;;;;;;;19.00;14.80;;;;;;;14.52;84.56;97649.80;116626;1177;68586;-73
2021/09/28 09:53:05;;;;;;;18.80;14.20;;;;;;;14.57;84.35;97648.10;116936;1177;59570;-73
2021/09/28 09:55:40;;;;;;;20.00;14.70;;;;;;;14.59;84.36;97649.68;116982;1177;59560;-75
2021/09/28 09:58:10;;;;;;;18.10;14.30;;;;;;;14.63;84.44;97647.02;117037;1177;71180;-75
2021/09/28 10:00:42;;;;;;;18.90;14.00;;;;;;;14.69;84.29;97648.04;116901;1179;69048;-70
2021/09/28 10:03:12;;;;;;;17.50;13.60;;;;;;;14.77;84.17;97648.68;117079;1177;68322;-72
2021/09/28 10:05:41;;;;;;;17.50;13.20;;;;;;;14.87;83.89;97650.81;117159;1177;59517;-71
2021/09/28 10:08:13;;;;;;;17.10;12.70;;;;;;;14.91;83.37;97652.81;116970;1177;59552;-74
2021/09/28 10:10:44;;;;;;;17.40;13.20;;;;;;;14.92;83.46;97651.64;116986;1177;71184;-73
2021/09/28 10:13:51;;;;;;;18.40;13.60;;;;;;;14.96;83.46;97654.73;117084;1177;68515;-72
2021/09/28 10:16:34;;;;;;;17.20;13.10;;;;;;;14.95;82.76;97653.40;117104;1177;69361;-70
2021/09/28 10:19:29;;;;;;;16.30;13.20;;;;;;;14.90;82.67;97651.54;117107;1177;59513;-72
2021/09/28 10:21:59;;;;;;;19.90;14.60;;;;;;;14.82;83.00;97653.95;116915;1177;59539;-70
2021/09/28 10:24:31;;;;;;;19.70;14.30;;;;;;;14.81;84.39;97653.42;117077;1177;70554;-75
2021/09/28 10:27:00;;;;;;;18.30;13.70;;;;;;;14.87;83.70;97655.98;117120;1177;68329;-74
2021/09/28 10:29:42;;;;;;;20.10;14.80;;;;;;;14.89;83.65;97654.70;117094;1174;69887;-72
2021/09/28 10:32:28;;;;;;;20.40;14.10;;;;;;;14.95;83.55;97652.33;117145;1177;59516;-73
2021/09/28 10:35:07;;;;;;;20.40;14.20;;;;;;;15.00;83.57;97649.83;117017;1176;59516;-73
2021/09/28 10:37:58;;;;;;;19.00;15.40;;;;;;;15.07;83.50;97653.59;117119;1177;71426;-73
2021/09/28 10:40:31;;;;;;;21.00;15.10;;;;;;;15.17;84.08;97657.30;116989;1177;67724;-70
2021/09/28 10:43:06;;;;;;;19.50;14.30;;;;;;;15.29;84.18;97661.17;117148;1177;68319;-70
2021/09/28 10:45:38;;;;;;;16.20;13.50;;;;;;;15.34;82.99;97662.13;117221;1177;59583;-75
2021/09/28 10:48:22;;;;;;;17.50;13.70;;;;;;;15.35;82.31;97665.34;117053;1177;59484;-73
2021/09/28 10:51:13;;;;;;;16.20;12.70;;;;;;;15.33;82.06;97665.45;117158;1177;70741;-74
2021/09/28 10:53:50;;;;;;;15.80;12.70;;;;;;;15.29;81.74;97663.88;117009;1178;69269;-74
2021/09/28 10:56:20;;;;;;;18.00;13.30;;;;;;;15.27;82.20;97661.41;117199;1177;69231;-73
2021/09/28 10:59:02;;;;;;;17.20;12.80;;;;;;;15.28;81.95;97662.98;117069;1177;59473;-74
2021/09/28 11:01:33;;;;;;;17.30;13.00;;;;;;;15.30;82.07;97666.53;117059;1177;59520;-76
2021/09/28 11:04:15;;;;;;;19.20;14.10;;;;;;;15.34;82.10;97667.86;116930;1177;70679;-76
2021/09/28 11:06:52;;;;;;;18.00;14.20;;;;;;;15.35;82.39;97671.86;116945;1177;68851;-76
2021/09/28 11:09:26;;;;;;;23.40;16.20;;;;;;;15.42;82.22;97670.25;116664;1179;69611;-75
2021/09/28 11:12:04;;;;;;;18.80;13.30;;;;;;;15.48;82.30;97673.86;116918;1177;59518;-76
2021/09/28 11:14:42;;;;;;;16.20;12.60;;;;;;;15.54;81.70;97670.09;116645;1178;59539;-75
2021/09/28 11:17:19;;;;;;;16.20;11.90;;;;;;;15.54;81.22;97668.79;116959;1178;71259;-76
2021/09/28 11:19:49;;;;;;;15.30;12.90;;;;;;;15.55;81.07;97670.33;116748;1179;69056;-73
2021/09/28 11:22:22;;;;;;;16.10;11.90;;;;;;;15.55;81.70;97672.85;116795;1179;68724;-75
2021/09/28 11:24:53;;;;;;;16.40;12.30;;;;;;;15.55;80.44;97669.72;117039;1177;59587;-74
2021/09/28 11:27:24;;;;;;;16.10;12.30;;;;;;;15.52;80.52;97669.85;116876;1179;59548;-75
2021/09/28 11:29:58;;;;;;;19.20;12.90;;;;;;;15.50;80.71;97668.83;116695;1177;71646;-74
2021/09/28 11:32:31;;;;;;;16.90;13.70;;;;;;;15.50;80.65;97670.26;116715;1179;68305;-75
2021/09/28 11:35:03;;;;;;;15.80;11.50;;;;;;;15.53;80.68;97672.05;116814;1177;69308;-74
2021/09/28 11:37:33;;;;;;;16.30;11.90;;;;;;;15.54;80.30;97671.27;116703;1179;59497;-74